Time;durP1;ratioP1;P1;durP2;ratioP2;P2;SDS_P1;SDS_P2;PMS_P1;PMS_P2;Temp;Humidity;BMP_temperature;BMP_pressure;BME280_temperature;BME280_humidity;BME280_pressure;Samples;Min_cycle;Max_cycle;Signal;HPM_P1;HPM_P2
2022/08/03 00:00:40;;;;;;;18.35;7.60;;;;;;;26.31;35.89;99372.47;5062471;28;20089;-65
2022/08/03 00:03:06;;;;;;;25.15;7.93;;;;;;;26.37;35.80;99371.41;5096060;28;20071;-64
2022/08/03 00:05:35;;;;;;;31.20;8.43;;;;;;;26.45;36.06;99367.34;5097345;28;20066;-65
2022/08/03 00:08:01;;;;;;;31.33;8.45;;;;;;;26.20;36.30;99381.69;5078777;28;20055;-65
2022/08/03 00:10:27;;;;;;;28.45;8.45;;;;;;;26.31;36.02;99377.91;5097139;28;20040;-65
2022/08/03 00:12:53;;;;;;;30.75;8.23;;;;;;;26.24;36.19;99382.81;5095966;28;20089;-65
2022/08/03 00:15:19;;;;;;;30.10;8.75;;;;;;;26.25;36.30;99372.72;5079032;28;20052;-65
2022/08/03 00:17:45;;;;;;;21.42;8.57;;;;;;;26.11;36.56;99355.22;5079346;28;20413;-65
2022/08/03 00:20:11;;;;;;;19.42;8.63;;;;;;;26.29;36.58;99373.84;5096705;28;20047;-65
2022/08/03 00:22:37;;;;;;;23.65;7.50;;;;;;;26.27;36.63;99376.84;5096070;28;20056;-65
2022/08/03 00:25:04;;;;;;;27.25;9.05;;;;;;;26.33;36.46;99380.38;5078670;28;20112;-65
2022/08/03 00:27:29;;;;;;;30.25;7.80;;;;;;;26.24;36.85;99373.81;5095536;28;20281;-65
2022/08/03 00:29:55;;;;;;;36.65;8.18;;;;;;;26.27;36.59;99387.72;5078787;28;20446;-65
2022/08/03 00:32:21;;;;;;;33.85;8.23;;;;;;;26.25;36.45;99370.81;5062046;28;20051;-65
2022/08/03 00:34:46;;;;;;;31.20;8.27;;;;;;;26.26;36.62;99371.66;5062305;28;20055;-65
2022/08/03 00:37:12;;;;;;;26.48;8.18;;;;;;;26.15;36.72;99370.78;5078968;28;20079;-65
2022/08/03 00:39:38;;;;;;;20.48;7.47;;;;;;;26.17;36.64;99373.25;5062051;28;20442;-66
2022/08/03 00:42:04;;;;;;;22.50;7.22;;;;;;;26.23;36.75;99378.44;5061039;28;20040;-65
2022/08/03 00:44:30;;;;;;;24.92;8.00;;;;;;;26.20;36.83;99370.00;5076362;28;20046;-65
2022/08/03 00:46:56;;;;;;;20.05;7.13;;;;;;;26.19;36.77;99369.16;5093093;28;20069;-66
2022/08/03 00:49:22;;;;;;;26.25;7.45;;;;;;;26.30;36.67;99372.75;5059496;28;20130;-66
2022/08/03 00:51:48;;;;;;;15.73;6.57;;;;;;;26.15;36.73;99378.94;5076305;28;20577;-64
2022/08/03 00:54:15;;;;;;;16.17;7.65;;;;;;;26.33;36.82;99364.88;5076525;28;20044;-65
2022/08/03 00:56:42;;;;;;;28.27;7.82;;;;;;;26.24;36.69;99377.38;5076450;28;20040;-66
2022/08/03 00:59:11;;;;;;;18.95;7.30;;;;;;;26.26;36.76;99375.16;5059652;28;20510;-65
2022/08/03 01:01:37;;;;;;;19.30;6.90;;;;;;;26.05;37.23;99359.00;5062052;28;20090;-64
2022/08/03 01:04:03;;;;;;;20.52;7.32;;;;;;;26.04;37.04;99369.09;5095441;28;20064;-64
2022/08/03 01:07:03;;;;;;;26.15;6.80;;;;;;;26.22;37.30;99376.78;5078393;28;20052;-64
2022/08/03 01:09:55;;;;;;;33.47;7.55;;;;;;;26.01;37.35;99366.06;5068197;28;20044;-65
2022/08/03 01:12:28;;;;;;;21.30;7.85;;;;;;;26.10;37.53;99370.75;5072135;28;20143;-66
2022/08/03 01:15:12;;;;;;;17.83;6.60;;;;;;;26.05;37.67;99372.63;5092159;28;20046;-65
2022/08/03 01:17:49;;;;;;;23.83;7.22;;;;;;;25.98;37.40;99370.13;5092893;28;20044;-65
2022/08/03 01:20:16;;;;;;;19.05;7.38;;;;;;;25.95;37.83;99369.81;5042769;28;20109;-67
2022/08/03 01:23:02;;;;;;;18.73;6.82;;;;;;;25.97;37.80;99364.94;5075523;28;20509;-65
2022/08/03 01:25:50;;;;;;;18.40;6.22;;;;;;;25.94;37.97;99360.81;5058418;28;20138;-64
2022/08/03 01:28:22;;;;;;;18.00;5.93;;;;;;;25.82;38.11;99352.06;5058149;28;20512;-66
2022/08/03 01:30:48;;;;;;;16.88;6.00;;;;;;;25.73;38.18;99361.81;5075342;28;20063;-65
2022/08/03 01:33:28;;;;;;;16.75;6.47;;;;;;;25.75;38.44;99361.53;5058041;28;20543;-66
2022/08/03 01:35:59;;;;;;;21.67;6.95;;;;;;;25.55;38.97;99364.13;5074564;28;20036;-66
2022/08/03 01:38:32;;;;;;;18.38;6.25;;;;;;;25.42;38.61;99324.59;5092108;28;20040;-65
2022/08/03 01:41:03;;;;;;;16.92;6.35;;;;;;;25.64;38.71;99370.72;5091309;28;20462;-65
2022/08/03 01:43:29;;;;;;;19.60;6.72;;;;;;;25.36;38.81;99357.44;5074586;28;20040;-66
2022/08/03 01:45:56;;;;;;;18.30;6.80;;;;;;;25.48;38.72;99372.50;5091269;28;20039;-65
2022/08/03 01:48:22;;;;;;;20.75;7.13;;;;;;;25.40;39.09;99375.69;5091295;28;20048;-66
2022/08/03 01:50:49;;;;;;;17.67;7.18;;;;;;;25.45;38.88;99367.56;5091573;28;20400;-65
2022/08/03 01:53:15;;;;;;;24.98;7.90;;;;;;;25.48;38.96;99369.78;5090382;28;20508;-69
2022/08/03 01:55:44;;;;;;;25.35;7.25;;;;;;;25.35;39.32;99350.38;5056641;28;20043;-66
2022/08/03 01:58:12;;;;;;;17.65;6.97;;;;;;;25.47;39.15;99373.59;5073051;28;20512;-66
2022/08/03 02:00:41;;;;;;;19.83;7.13;;;;;;;25.37;39.49;99373.50;5089947;28;20050;-66
2022/08/03 02:03:08;;;;;;;19.58;7.35;;;;;;;25.46;39.21;99377.41;5056010;28;20428;-65
2022/08/03 02:05:34;;;;;;;15.57;8.05;;;;;;;25.29;39.45;99373.13;5089722;28;20138;-65
2022/08/03 02:08:02;;;;;;;18.15;8.02;;;;;;;25.43;39.37;99377.88;5092119;28;20126;-65
2022/08/03 02:10:28;;;;;;;17.08;7.90;;;;;;;25.32;39.26;99373.44;5074517;28;20386;-65
2022/08/03 02:12:54;;;;;;;17.45;7.65;;;;;;;25.06;39.84;99355.28;5074653;28;20043;-65
2022/08/03 02:15:21;;;;;;;17.60;7.65;;;;;;;25.31;39.86;99377.22;5074403;28;20536;-65
2022/08/03 02:17:47;;;;;;;22.35;8.18;;;;;;;25.16;39.42;99354.53;5091227;28;20093;-67
2022/08/03 02:20:13;;;;;;;23.33;8.20;;;;;;;25.41;39.47;99384.69;5074053;28;20040;-64
2022/08/03 02:22:40;;;;;;;23.40;8.63;;;;;;;25.46;39.14;99382.00;5091183;28;20044;-66
2022/08/03 02:25:08;;;;;;;20.95;7.95;;;;;;;25.51;39.40;99382.06;5074177;28;20232;-66
2022/08/03 02:27:35;;;;;;;16.45;7.40;;;;;;;25.42;39.14;99375.44;5092073;28;20040;-66
2022/08/03 02:30:08;;;;;;;15.35;8.10;;;;;;;25.50;39.29;99373.06;5091121;28;20051;-65
2022/08/03 02:32:36;;;;;;;17.92;7.18;;;;;;;25.49;39.39;99376.88;5091051;28;20043;-65
2022/08/03 02:35:04;;;;;;;16.15;7.32;;;;;;;25.39;39.26;99373.22;5073838;28;20147;-65
2022/08/03 02:37:48;;;;;;;18.48;8.00;;;;;;;25.59;39.32;99393.25;5090850;28;20036;-66
2022/08/03 02:40:14;;;;;;;13.60;7.75;;;;;;;25.33;39.53;99375.09;5091029;28;20131;-65
2022/08/03 02:42:40;;;;;;;14.15;8.00;;;;;;;25.38;39.23;99394.19;5090913;28;20519;-64
2022/08/03 02:45:11;;;;;;;15.55;7.78;;;;;;;25.45;39.08;99367.56;5057464;28;20039;-64
2022/08/03 02:47:36;;;;;;;;;;;;;;;25.73;38.77;99390.91;5090996;28;20052;-65
2022/08/03 02:50:03;;;;;;;16.23;7.80;;;;;;;25.56;39.29;99401.94;5091000;28;19973;-65
2022/08/03 02:52:32;;;;;;;20.77;8.15;;;;;;;25.65;38.86;99403.09;5090927;28;20109;-64
2022/08/03 02:54:59;;;;;;;18.45;8.77;;;;;;;25.54;39.53;99384.25;5090542;28;20122;-65
2022/08/03 02:57:27;;;;;;;17.17;8.35;;;;;;;25.53;39.26;99398.91;5073521;28;20075;-65
2022/08/03 02:59:54;;;;;;;20.10;9.00;;;;;;;25.59;39.56;99392.44;5091154;28;20071;-65
2022/08/03 03:02:20;;;;;;;17.70;8.98;;;;;;;25.43;39.48;99386.03;5091324;28;20052;-65
2022/08/03 03:04:46;;;;;;;19.08;9.52;;;;;;;25.50;39.51;99397.53;5090512;28;20513;-65
2022/08/03 03:07:13;;;;;;;25.55;10.10;;;;;;;25.58;39.69;99404.41;5091176;28;20515;-64
2022/08/03 03:09:39;;;;;;;23.48;10.18;;;;;;;25.58;39.69;99404.41;5073050;28;20142;-65
2022/08/03 03:12:07;;;;;;;24.60;10.02;;;;;;;25.58;39.73;99393.50;5091276;28;20599;-64
2022/08/03 03:14:33;;;;;;;21.40;9.65;;;;;;;25.66;39.71;99404.72;5089876;28;20117;-65
2022/08/03 03:17:00;;;;;;;18.83;10.10;;;;;;;25.68;39.59;99399.84;5089833;28;20076;-65
2022/08/03 03:19:26;;;;;;;19.80;10.57;;;;;;;25.65;39.71;99408.53;5089758;28;20059;-65
2022/08/03 03:21:53;;;;;;;20.35;10.45;;;;;;;25.60;39.57;99392.16;5090986;28;20044;-66
2022/08/03 03:24:19;;;;;;;19.02;9.98;;;;;;;25.64;39.52;99397.91;5073205;28;20378;-65
2022/08/03 03:26:44;;;;;;;22.10;10.00;;;;;;;25.73;39.69;99418.94;5089514;28;20054;-65
2022/08/03 03:29:10;;;;;;;19.05;10.20;;;;;;;25.73;39.57;99418.94;5090604;28;20040;-65
2022/08/03 03:31:36;;;;;;;23.80;11.80;;;;;;;25.74;39.72;99428.72;5090059;28;20134;-64
2022/08/03 03:34:02;;;;;;;23.50;10.30;;;;;;;25.85;39.52;99421.44;5090700;28;20127;-65
2022/08/03 03:36:28;;;;;;;24.05;10.55;;;;;;;25.81;39.14;99421.16;5072721;28;20043;-65
2022/08/03 03:38:54;;;;;;;17.83;9.70;;;;;;;25.83;39.17;99419.00;5089972;28;20168;-65
2022/08/03 03:41:20;;;;;;;19.77;10.57;;;;;;;25.82;38.99;99420.06;5091117;28;20075;-65
2022/08/03 03:43:45;;;;;;;22.05;10.00;;;;;;;25.85;39.34;99426.88;5072397;28;20051;-65
2022/08/03 03:46:13;;;;;;;24.08;11.10;;;;;;;25.95;39.13;99414.19;5090436;28;20051;-65
2022/08/03 03:48:39;;;;;;;24.48;10.07;;;;;;;25.93;39.39;99424.50;5090265;28;20061;-65
2022/08/03 03:51:06;;;;;;;18.20;10.32;;;;;;;26.01;39.07;99424.06;5090389;28;20051;-65
2022/08/03 03:53:32;;;;;;;25.92;10.30;;;;;;;26.01;38.81;99425.94;5089279;28;20040;-65
2022/08/03 03:55:57;;;;;;;19.55;10.18;;;;;;;25.96;38.91;99413.09;5089310;28;20385;-65
2022/08/03 03:58:23;;;;;;;21.70;10.77;;;;;;;26.13;39.04;99429.28;5089147;28;20039;-66
2022/08/03 04:00:52;;;;;;;22.20;10.25;;;;;;;26.24;38.64;99431.00;5089381;28;20063;-65
2022/08/03 04:03:18;;;;;;;19.40;10.15;;;;;;;26.28;38.62;99432.09;5072714;28;20101;-65
2022/08/03 04:11:42;;;;;;;20.23;10.10;;;;;;;26.73;37.93;99447.84;5089023;28;20044;-66
2022/08/03 04:14:33;;;;;;;24.48;9.50;;;;;;;26.79;37.76;99449.50;5064495;28;20052;-66
2022/08/03 04:17:01;;;;;;;23.30;9.50;;;;;;;26.85;37.82;99448.47;5069404;28;20135;-65
2022/08/03 04:19:33;;;;;;;26.30;9.55;;;;;;;26.88;38.02;99447.91;5089008;28;20129;-65
2022/08/03 04:22:10;;;;;;;14.52;8.55;;;;;;;26.96;37.84;99444.66;5072707;28;20044;-65
2022/08/03 04:24:43;;;;;;;18.27;8.20;;;;;;;27.10;37.66;99445.78;5072275;28;20040;-66
2022/08/03 04:27:11;;;;;;;20.17;8.93;;;;;;;27.01;37.71;99412.78;5088952;28;20101;-65
2022/08/03 04:29:40;;;;;;;;;;;;;;;27.39;37.22;99444.22;5072702;28;20497;-65
2022/08/03 04:32:07;;;;;;;18.25;8.55;;;;;;;27.17;37.70;99425.34;5055602;28;19973;-65
2022/08/03 04:34:33;;;;;;;20.58;9.10;;;;;;;27.35;37.80;99443.13;5055332;28;20040;-65
2022/08/03 04:37:02;;;;;;;21.40;8.95;;;;;;;27.52;37.76;99441.75;5055304;28;20046;-65
2022/08/03 04:39:30;;;;;;;16.10;9.00;;;;;;;27.51;36.77;99412.03;5071718;28;20370;-65
2022/08/03 04:42:00;;;;;;;13.45;8.57;;;;;;;27.86;36.57;99447.50;5072651;28;20048;-64
2022/08/03 04:44:27;;;;;;;19.92;8.60;;;;;;;27.81;36.81;99453.78;5091074;28;20048;-66
2022/08/03 04:46:53;;;;;;;22.67;8.35;;;;;;;27.80;36.78;99446.69;5075737;28;20047;-65
2022/08/03 04:49:19;;;;;;;13.95;8.07;;;;;;;27.90;36.39;99456.81;5092186;28;20071;-67
2022/08/03 04:51:46;;;;;;;16.33;8.00;;;;;;;27.90;36.58;99435.78;5093757;28;20052;-67
2022/08/03 04:54:12;;;;;;;11.88;8.25;;;;;;;28.06;36.20;99460.34;5087227;28;20078;-68
2022/08/03 04:56:40;;;;;;;16.67;8.82;;;;;;;28.25;35.95;99459.47;5091430;28;20165;-68
2022/08/03 04:59:06;;;;;;;16.27;9.07;;;;;;;28.03;35.69;99423.50;5091692;28;20036;-67
2022/08/03 05:01:32;;;;;;;17.63;9.00;;;;;;;28.07;35.92;99424.56;5073873;28;20052;-67
2022/08/03 05:03:59;;;;;;;19.58;8.52;;;;;;;28.36;35.55;99458.34;5072938;28;20056;-66
2022/08/03 05:06:25;;;;;;;20.15;8.98;;;;;;;28.52;35.46;99459.97;5091145;28;20112;-69
2022/08/03 05:08:51;;;;;;;18.15;9.20;;;;;;;28.64;35.45;99456.91;5093094;28;20064;-66
2022/08/03 05:11:17;;;;;;;20.20;8.45;;;;;;;28.66;35.39;99449.28;5074037;28;20070;-66
2022/08/03 05:13:43;;;;;;;25.65;9.30;;;;;;;28.78;35.65;99453.31;5090025;28;20051;-66
2022/08/03 05:16:09;;;;;;;22.20;7.32;;;;;;;28.67;35.21;99440.78;5091401;28;20066;-66
2022/08/03 05:18:37;;;;;;;29.15;8.25;;;;;;;28.85;35.11;99451.09;5090296;28;20047;-65
2022/08/03 05:21:03;;;;;;;25.98;6.75;;;;;;;28.97;34.91;99446.09;5090831;28;20073;-66
2022/08/03 05:23:30;;;;;;;20.63;7.38;;;;;;;29.06;34.68;99466.31;5091089;28;20139;-67
2022/08/03 05:25:56;;;;;;;23.35;7.07;;;;;;;29.11;34.68;99460.81;5073778;28;20040;-67
2022/08/03 05:28:22;;;;;;;14.98;6.35;;;;;;;29.14;34.48;99451.22;5091243;28;20044;-67
2022/08/03 05:30:47;;;;;;;19.83;6.65;;;;;;;29.28;34.40;99457.69;5073392;28;20079;-66
2022/08/03 05:33:14;;;;;;;18.05;6.13;;;;;;;29.38;34.09;99463.09;5090619;28;20420;-67
2022/08/03 05:35:40;;;;;;;20.30;6.43;;;;;;;29.48;33.96;99466.59;5073032;28;20561;-67
2022/08/03 05:38:05;;;;;;;21.27;6.07;;;;;;;29.67;33.50;99466.75;5073599;28;20568;-66
2022/08/03 05:40:31;;;;;;;14.35;6.32;;;;;;;29.74;33.73;99477.38;5091802;28;20082;-67
2022/08/03 05:42:57;;;;;;;21.48;6.38;;;;;;;29.85;33.10;99477.00;5073413;28;20105;-66
2022/08/03 05:45:23;;;;;;;18.15;5.30;;;;;;;29.53;33.38;99411.81;5090845;28;20129;-66
2022/08/03 05:47:49;;;;;;;18.63;6.10;;;;;;;29.87;33.70;99458.38;5074554;28;20054;-67
2022/08/03 05:50:16;;;;;;;19.13;6.57;;;;;;;30.10;33.54;99468.56;5074343;28;20536;-67
2022/08/03 05:52:43;;;;;;;13.65;6.68;;;;;;;30.11;33.09;99472.91;5089009;28;20036;-66
2022/08/03 05:55:09;;;;;;;16.50;6.35;;;;;;;30.37;32.78;99470.78;5089757;28;20066;-67
2022/08/03 05:57:38;;;;;;;17.55;7.00;;;;;;;30.48;32.46;99458.56;5072519;28;20039;-67
2022/08/03 06:00:06;;;;;;;19.05;6.82;;;;;;;30.62;32.24;99462.25;5068781;28;20032;-67
2022/08/03 06:02:37;;;;;;;16.80;8.10;;;;;;;30.62;32.96;99459.50;5087727;28;20044;-66
2022/08/03 06:05:03;;;;;;;20.77;8.00;;;;;;;30.77;32.66;99448.34;5088569;28;20050;-65
2022/08/03 06:07:29;;;;;;;19.08;9.20;;;;;;;30.96;32.59;99468.41;5090477;28;20032;-66
2022/08/03 06:09:55;;;;;;;30.63;7.65;;;;;;;30.97;32.57;99470.03;5085682;28;20066;-68
2022/08/03 06:12:21;;;;;;;21.63;8.30;;;;;;;31.07;32.38;99468.00;5071429;28;20060;-67
2022/08/03 06:14:46;;;;;;;25.58;8.38;;;;;;;31.24;32.20;99480.38;5070300;28;20462;-66
2022/08/03 06:17:12;;;;;;;17.80;7.65;;;;;;;31.21;32.00;99459.84;5070213;28;20035;-67
2022/08/03 06:19:38;;;;;;;17.75;7.22;;;;;;;31.31;31.61;99467.16;5089951;28;20047;-66
2022/08/03 06:22:03;;;;;;;18.85;7.80;;;;;;;31.36;31.65;99467.88;5071900;28;20050;-66
2022/08/03 06:24:29;;;;;;;20.42;7.80;;;;;;;31.46;31.46;99477.88;5089365;28;20040;-66
2022/08/03 06:26:55;;;;;;;19.08;8.05;;;;;;;31.44;31.19;99460.91;5055613;28;20097;-67
2022/08/03 06:29:23;;;;;;;19.45;7.38;;;;;;;31.61;30.90;99477.66;5089930;28;20069;-67
2022/08/03 06:31:50;;;;;;;14.95;7.22;;;;;;;31.68;30.77;99467.91;5090781;28;20421;-67
2022/08/03 06:34:16;;;;;;;16.33;7.38;;;;;;;31.62;30.87;99460.88;5072685;28;20043;-65
2022/08/03 06:36:44;;;;;;;20.88;7.32;;;;;;;31.79;31.08;99457.56;5072250;28;20043;-67
2022/08/03 06:39:11;;;;;;;16.27;7.00;;;;;;;31.97;30.60;99476.78;5072955;28;20048;-67
2022/08/03 06:41:37;;;;;;;24.77;6.97;;;;;;;32.03;30.76;99461.81;5091221;28;20140;-66
2022/08/03 06:44:06;;;;;;;18.83;6.75;;;;;;;32.25;30.50;99481.22;5090089;28;20134;-66
2022/08/03 06:46:34;;;;;;;26.73;7.47;;;;;;;32.44;30.38;99467.44;5089532;28;20058;-67
2022/08/03 06:49:02;;;;;;;22.98;7.57;;;;;;;32.43;30.01;99477.59;5089504;28;20490;-67
2022/08/03 06:51:28;;;;;;;18.05;6.75;;;;;;;32.64;29.29;99486.28;5038787;28;20047;-67
2022/08/03 06:53:53;;;;;;;18.48;6.00;;;;;;;32.70;28.75;99485.06;5072131;28;20061;-69
2022/08/03 06:56:24;;;;;;;16.13;5.22;;;;;;;32.81;28.32;99460.91;5072154;28;20040;-69
2022/08/03 06:58:50;;;;;;;12.13;5.20;;;;;;;33.01;28.29;99475.06;5072952;28;20047;-69
2022/08/03 07:01:17;;;;;;;20.10;6.20;;;;;;;33.18;27.61;99480.75;5089122;28;20040;-67
2022/08/03 07:03:44;;;;;;;13.73;5.63;;;;;;;33.47;27.18;99481.19;5087395;28;20043;-67
2022/08/03 07:06:10;;;;;;;12.07;4.90;;;;;;;33.71;27.57;99467.09;5089573;28;20044;-65
2022/08/03 07:08:36;;;;;;;18.13;4.75;;;;;;;33.89;26.59;99461.44;5088971;28;20039;-67
2022/08/03 07:11:02;;;;;;;11.93;4.38;;;;;;;34.58;26.16;99492.16;5071552;28;20046;-67
2022/08/03 07:13:27;;;;;;;17.42;5.35;;;;;;;35.08;25.66;99488.75;5054872;28;20048;-65
2022/08/03 07:15:53;;;;;;;55.03;11.70;;;;;;;35.80;24.67;99483.44;5038514;28;20524;-68
2022/08/03 07:18:19;;;;;;;116.30;23.60;;;;;;;36.48;23.93;99494.41;5069954;28;20408;-67
2022/08/03 07:20:44;;;;;;;93.20;20.10;;;;;;;37.02;22.43;99493.50;5088292;28;20043;-65
2022/08/03 07:23:10;;;;;;;80.05;19.05;;;;;;;37.59;21.25;99481.84;5087826;28;20093;-68
2022/08/03 07:25:36;;;;;;;207.07;41.83;;;;;;;38.68;19.49;99489.41;5086733;28;20044;-67
2022/08/03 07:28:02;;;;;;;22.35;5.22;;;;;;;39.65;18.60;99490.91;5070255;28;20043;-67
2022/08/03 07:30:27;;;;;;;32.17;8.43;;;;;;;41.02;17.12;99499.38;5053529;28;20592;-66
2022/08/03 07:32:53;;;;;;;48.78;10.38;;;;;;;42.39;15.88;99491.19;5068970;28;20123;-65
2022/08/03 07:35:19;;;;;;;152.85;32.90;;;;;;;44.21;14.69;99496.66;5086820;28;20569;-67
2022/08/03 07:37:44;;;;;;;172.63;37.20;;;;;;;46.07;13.00;99500.78;5089367;28;20035;-66
2022/08/03 07:40:10;;;;;;;50.67;10.70;;;;;;;47.72;11.77;99494.28;5088860;28;20511;-65
2022/08/03 07:42:37;;;;;;;17.70;4.90;;;;;;;48.41;10.20;99483.06;5089620;28;20121;-64
2022/08/03 07:45:03;;;;;;;5.10;2.55;;;;;;;48.90;9.46;99499.59;5089113;28;20489;-66
2022/08/03 07:47:30;;;;;;;59.45;13.07;;;;;;;49.43;9.69;99490.59;5088112;28;20412;-68
2022/08/03 07:49:56;;;;;;;15.35;3.92;;;;;;;49.84;9.02;99496.97;5089523;28;20142;-69
2022/08/03 07:55:07;;;;;;;23.80;6.07;;;;;;;51.93;7.71;99500.16;5088499;28;20036;-68
2022/08/03 07:57:33;;;;;;;11.57;3.50;;;;;;;52.34;7.23;99491.16;5070761;28;20051;-66
2022/08/03 08:00:01;;;;;;;11.77;2.88;;;;;;;49.39;8.40;99496.28;5089689;28;20180;-67
2022/08/03 08:02:29;;;;;;;34.10;7.60;;;;;;;48.16;9.80;99486.03;5089445;28;20052;-67
2022/08/03 08:04:57;;;;;;;8.35;3.05;;;;;;;47.46;9.41;99486.34;5071216;28;20044;-71
2022/08/03 08:07:24;;;;;;;16.08;5.15;;;;;;;47.06;10.23;99473.56;5089396;28;20039;-67
2022/08/03 08:09:50;;;;;;;20.75;5.07;;;;;;;47.24;10.11;99482.00;5088182;28;20039;-68
2022/08/03 08:12:16;;;;;;;36.97;9.68;;;;;;;47.58;10.73;99483.91;5071082;28;20127;-67
2022/08/03 08:14:44;;;;;;;35.40;7.88;;;;;;;49.11;9.30;99490.94;5088225;28;20530;-68
2022/08/03 08:17:10;;;;;;;31.50;6.80;;;;;;;50.88;8.20;99493.75;5053777;28;20121;-68
2022/08/03 08:19:36;;;;;;;7.60;2.25;;;;;;;52.20;6.72;99507.69;5090876;28;20075;-66
2022/08/03 08:22:01;;;;;;;8.48;2.33;;;;;;;52.60;6.60;99500.66;5091041;28;20526;-67
2022/08/03 08:24:29;;;;;;;43.55;9.68;;;;;;;53.02;6.25;99500.41;5092730;28;20611;-68
2022/08/03 08:26:55;;;;;;;10.00;2.65;;;;;;;51.08;7.66;99494.63;5091863;28;20043;-67
2022/08/03 08:29:22;;;;;;;13.90;3.85;;;;;;;49.74;8.31;99492.25;5091934;28;20032;-67
2022/08/03 08:31:51;;;;;;;13.02;2.65;;;;;;;48.87;8.78;99498.38;5090369;28;20054;-64
2022/08/03 08:34:17;;;;;;;8.85;2.88;;;;;;;46.63;9.59;99499.28;5090479;28;20089;-67
2022/08/03 08:36:42;;;;;;;5.88;2.40;;;;;;;44.70;11.44;99482.34;5091713;28;20040;-66
2022/08/03 08:39:08;;;;;;;5.28;2.40;;;;;;;42.51;12.09;99496.56;5090988;28;20131;-66
2022/08/03 08:41:34;;;;;;;14.00;2.92;;;;;;;43.05;12.51;99480.31;5074334;28;20181;-67
2022/08/03 08:44:00;;;;;;;15.73;4.10;;;;;;;45.77;10.62;99480.63;5092747;28;20063;-67
2022/08/03 08:46:29;;;;;;;8.98;3.20;;;;;;;48.90;8.94;99491.13;5057892;28;20071;-67
2022/08/03 08:48:55;;;;;;;12.03;3.63;;;;;;;50.94;7.84;99489.19;5091245;28;20054;-65
2022/08/03 08:51:21;;;;;;;21.05;6.00;;;;;;;51.22;7.14;99494.34;5092646;28;20449;-66
2022/08/03 08:53:50;;;;;;;10.55;1.90;;;;;;;51.26;6.79;99492.25;5092613;28;20097;-68
2022/08/03 08:56:16;;;;;;;4.97;2.00;;;;;;;52.21;6.06;99503.63;5092724;28;20051;-66
2022/08/03 08:58:53;;;;;;;17.88;4.30;;;;;;;53.70;5.56;99496.47;5090967;28;20036;-67
2022/08/03 09:01:19;;;;;;;22.30;7.07;;;;;;;55.12;5.45;99489.34;5091040;28;20413;-66
2022/08/03 09:03:46;;;;;;;26.48;7.45;;;;;;;56.09;5.09;99500.38;5090686;28;20051;-65
2022/08/03 09:06:12;;;;;;;5.35;1.80;;;;;;;56.68;3.86;99502.03;5074341;28;20162;-66
2022/08/03 09:08:40;;;;;;;8.80;1.95;;;;;;;57.48;3.30;99503.38;5090704;28;20531;-65
2022/08/03 09:11:09;;;;;;;4.50;1.60;;;;;;;59.09;2.45;99506.84;5089086;28;20066;-65
2022/08/03 09:13:35;;;;;;;7.80;1.95;;;;;;;60.60;2.45;99499.59;5090472;28;20047;-64
2022/08/03 09:16:21;;;;;;;3.42;1.27;;;;;;;60.70;1.90;99496.13;5090542;28;20040;-67
2022/08/03 09:19:11;;;;;;;5.68;1.50;;;;;;;60.71;2.18;99506.34;5091602;28;20217;-66
2022/08/03 09:21:37;;;;;;;7.28;1.63;;;;;;;55.93;3.97;99509.94;5092251;28;20048;-66
2022/08/03 09:24:04;;;;;;;8.82;1.80;;;;;;;53.68;4.89;99482.72;5080931;28;20044;-64
2022/08/03 09:26:33;;;;;;;9.13;1.73;;;;;;;52.20;5.70;99485.00;5077692;28;20036;-66
2022/08/03 09:29:04;;;;;;;7.40;2.20;;;;;;;52.95;5.49;99477.88;5034216;28;20041;-65
2022/08/03 09:31:36;;;;;;;6.13;1.90;;;;;;;54.46;4.82;99481.06;5071150;28;20092;-65
2022/08/03 09:34:07;;;;;;;6.55;1.90;;;;;;;56.71;4.20;99490.47;5070842;28;20056;-64
2022/08/03 09:36:45;;;;;;;14.18;1.77;;;;;;;58.45;3.46;99474.19;5070651;28;20045;-66
2022/08/03 09:39:15;;;;;;;6.00;1.70;;;;;;;59.89;2.50;99488.56;5070041;28;20086;-66
2022/08/03 09:42:03;;;;;;;4.45;1.60;;;;;;;58.58;2.76;99489.03;5070298;28;20049;-66
2022/08/03 09:44:41;;;;;;;5.57;1.58;;;;;;;57.10;3.39;99483.06;5069766;28;20047;-66
2022/08/03 09:47:11;;;;;;;5.20;1.60;;;;;;;56.37;3.96;99476.41;5059107;28;20051;-66
2022/08/03 09:49:40;;;;;;;5.07;1.70;;;;;;;58.21;2.86;99493.34;5087597;28;20092;-65
2022/08/03 09:52:21;;;;;;;9.52;1.70;;;;;;;58.81;3.08;99496.06;5089955;28;20047;-66
2022/08/03 09:54:52;;;;;;;6.93;1.75;;;;;;;56.43;3.75;99494.50;5090168;28;20131;-65
2022/08/03 09:57:26;;;;;;;6.30;2.00;;;;;;;55.00;4.55;99464.59;5056081;28;20043;-65
2022/08/03 09:59:57;;;;;;;5.25;1.80;;;;;;;56.69;4.16;99475.06;5091510;28;20032;-66
2022/08/03 10:02:26;;;;;;;7.68;1.60;;;;;;;58.50;2.96;99484.19;5089922;28;20109;-65
2022/08/03 10:04:53;;;;;;;9.88;1.70;;;;;;;58.43;3.01;99481.66;5090455;28;20040;-65
2022/08/03 10:07:20;;;;;;;11.68;1.83;;;;;;;57.88;3.03;99486.00;5089247;28;20070;-67
2022/08/03 10:09:54;;;;;;;7.07;1.60;;;;;;;56.55;3.38;99492.81;5055368;28;20088;-64
2022/08/03 10:12:20;;;;;;;5.00;1.98;;;;;;;55.68;4.00;99475.09;5089808;28;20494;-65
2022/08/03 10:14:46;;;;;;;3.30;1.70;;;;;;;55.93;3.92;99483.50;5072439;28;20546;-65
2022/08/03 10:17:12;;;;;;;8.25;1.83;;;;;;;56.51;3.78;99481.53;5090537;28;20047;-66
2022/08/03 10:19:40;;;;;;;6.43;1.92;;;;;;;56.72;3.84;99491.25;5090736;28;20048;-66
2022/08/03 10:22:17;;;;;;;7.65;2.05;;;;;;;56.13;3.84;99481.84;5090866;28;20044;-66
2022/08/03 10:24:52;;;;;;;5.85;1.60;;;;;;;56.38;3.58;99482.94;5088995;28;20035;-66
2022/08/03 10:27:19;;;;;;;6.57;1.85;;;;;;;56.44;3.70;99481.81;5090957;28;20036;-65
2022/08/03 10:29:48;;;;;;;7.13;1.90;;;;;;;55.88;4.18;99456.38;5089033;28;20040;-64
2022/08/03 10:32:21;;;;;;;11.55;2.08;;;;;;;56.14;3.70;99474.09;5089488;28;20075;-62
2022/08/03 10:34:49;;;;;;;4.20;2.00;;;;;;;56.75;3.17;99484.63;5089419;28;20048;-63
2022/08/03 10:37:15;;;;;;;;;;;;;;;54.96;4.26;99488.75;5073100;28;20870;-63
2022/08/03 10:39:52;;;;;;;7.18;1.67;;;;;;;54.23;4.73;99479.41;5089019;28;19920;-65
2022/08/03 10:42:21;;;;;;;8.65;1.75;;;;;;;55.72;3.93;99472.88;5089755;28;20130;-66
2022/08/03 10:44:49;;;;;;;3.42;1.60;;;;;;;56.78;3.26;99478.72;5088669;28;20101;-66
2022/08/03 10:47:15;;;;;;;6.13;1.92;;;;;;;56.70;3.37;99479.53;5089069;28;20420;-66
2022/08/03 10:49:40;;;;;;;4.32;1.90;;;;;;;56.61;3.56;99468.84;5090109;28;20036;-65
2022/08/03 10:52:06;;;;;;;4.20;1.40;;;;;;;56.41;3.36;99484.84;5088847;28;20036;-66
2022/08/03 10:57:33;;;;;;;4.75;1.55;;;;;;;55.64;3.99;99480.16;5090522;28;20412;-65
2022/08/03 10:57:46;;;;;;;5.97;1.70;;;;;;;55.21;4.26;99480.91;5090532;28;20044;-66
2022/08/03 11:00:52;;;;;;;10.50;1.70;;;;;;;54.22;4.75;99480.66;5090341;28;20405;-66
2022/08/03 11:03:20;;;;;;;8.25;1.90;;;;;;;53.10;5.16;99475.44;5072795;28;20522;-67
2022/08/03 11:05:52;;;;;;;6.05;1.75;;;;;;;52.43;5.75;99459.34;5054694;28;20147;-65
2022/08/03 11:08:36;;;;;;;4.13;1.90;;;;;;;52.18;5.97;99476.16;5087115;28;20044;-65
2022/08/03 11:11:22;;;;;;;6.80;1.90;;;;;;;52.41;5.41;99473.97;5087000;28;20091;-65
2022/08/03 11:13:57;;;;;;;9.18;2.00;;;;;;;53.61;5.07;99465.09;5085482;28;20142;-64
2022/08/03 11:16:26;;;;;;;5.30;1.70;;;;;;;54.77;4.67;99480.00;5089621;28;20131;-64
2022/08/03 11:19:00;;;;;;;7.03;1.90;;;;;;;54.06;5.15;99480.72;5089376;28;20063;-66
2022/08/03 11:21:47;;;;;;;7.75;1.90;;;;;;;51.40;6.23;99477.84;5086741;28;20043;-65
2022/08/03 11:24:31;;;;;;;8.63;2.47;;;;;;;48.50;7.83;99472.91;5084951;28;20433;-65
2022/08/03 11:27:21;;;;;;;7.95;2.20;;;;;;;46.32;9.67;99463.53;5087422;28;20047;-66
2022/08/03 11:29:59;;;;;;;12.05;2.58;;;;;;;44.96;11.15;99467.31;5087545;28;20052;-65
2022/08/03 11:32:42;;;;;;;10.60;2.50;;;;;;;43.98;11.47;99465.19;5086887;28;20040;-64
2022/08/03 11:35:17;;;;;;;6.68;2.33;;;;;;;43.57;11.72;99463.50;5086150;28;21595;-64
2022/08/03 11:38:04;;;;;;;8.32;2.42;;;;;;;43.16;12.44;99461.75;5068246;28;20094;-63
2022/08/03 11:40:52;;;;;;;8.68;2.85;;;;;;;43.01;12.40;99466.28;5069612;28;20040;-66
2022/08/03 11:43:21;;;;;;;7.28;2.17;;;;;;;43.14;12.23;99469.69;5067929;28;20048;-64
2022/08/03 11:46:16;;;;;;;4.65;2.40;;;;;;;43.34;12.20;99457.19;5067258;28;20125;-64